CW9804 Weather Reports


Display with metric or nautical units.
time (UTC)temp
F
wind
direction
speed
MPH
gust
MPH
rain 1hr
in
rain 24hr
in
rain mn
in
humidity
%
barometer
mb
20191208004912 37 243 4.0 5.0 0.00 0.00 0.00 84 1019.8
20191208003412 37 214 3.0 4.0 0.00 0.00 0.00 83 1019.9
20191208001911 37 216 2.0 5.0 0.00 0.00 0.00 83 1019.9
20191208000412 37 211 3.0 7.0 0.00 0.00 0.00 82 1020.0
20191207234911 37 238 4.0 5.0 0.00 0.00 0.00 83 1020.0
20191207233411 36 218 4.0 8.0 0.00 0.00 0.00 85 1020.1
20191207231911 36 225 2.0 4.0 0.00 0.00 0.00 86 1020.1
20191207230411 36 211 3.0 4.0 0.00 0.00 0.00 86 1020.1
20191207224910 36 220 3.0 5.0 0.00 0.00 0.00 85 1020.6
20191207223410 36 207 4.0 6.0 0.00 0.00 0.00 86 1020.4
20191207221910 35 241 4.0 5.0 0.00 0.00 0.00 88 1020.6
20191207220410 36 231 3.0 4.0 0.00 0.00 0.00 87 1020.4
20191207214913 37 200 3.0 4.0 0.00 0.00 0.00 84 1020.3
20191207213413 37 213 4.0 7.0 0.00 0.00 0.00 85 1020.4
20191207211913 36 232 4.0 5.0 0.00 0.00 0.00 86 1020.1
20191207210413 37 234 1.0 3.0 0.00 0.00 0.00 85 1020.2
20191207204912 37 205 3.0 7.0 0.00 0.00 0.00 85 1020.1
20191207203412 38 177 0.0 1.0 0.00 0.00 0.00 84 1020.2
20191207201913 38 212 2.0 7.0 0.00 0.00 0.00 84 1020.2
20191207200412 37 239 6.0 9.0 0.00 0.00 0.00 86 1020.2
20191207194912 36 237 0.0 1.0 0.00 0.00 0.00 87 1020.1
20191207193412 36 237 0.0 0.0 0.00 0.00 0.00 86 1019.7
20191207191912 36 237 1.0 2.0 0.00 0.00 0.00 86 1019.5
20191207190412 36 207 0.0 3.0 0.00 0.00 0.00 86 1019.5
20191207184911 37 198 0.0 0.0 0.00 0.00 0.00 84 1019.7
20191207183411 37 198 0.0 3.0 0.00 0.00 0.00 84 1019.8
20191207181911 38 198 1.0 3.0 0.00 0.00 0.00 82 1019.6
20191207180411 39 255 2.0 6.0 0.00 0.00 0.00 79 1019.5
20191207174911 39 215 1.0 3.0 0.00 0.00 0.00 79 1019.2
20191207173411 40 113 0.0 0.0 0.00 0.00 0.00 79 1019.1
20191207171910 40 231 0.0 4.0 0.00 0.00 0.00 78 1018.8
20191207170410 40 234 3.0 4.0 0.00 0.00 0.00 78 1018.6
20191207164910 40 229 4.0 5.0 0.00 0.00 0.00 81 1018.7
20191207163410 39 170 1.0 4.0 0.00 0.00 0.00 82 1018.3
20191207161910 40 178 2.0 3.0 0.00 0.00 0.00 82 1018.2
20191207160410 40 194 2.0 4.0 0.00 0.00 0.00 81 1018.0
20191207154909 41 157 1.0 6.0 0.00 0.00 0.00 80 1018.1
20191207153415 41 182 3.0 5.0 0.00 0.00 0.00 79 1018.2
20191207151915 42 173 1.0 3.0 0.00 0.00 0.00 78 1018.1
20191207150415 43 169 4.0 5.0 0.00 0.00 0.00 78 1017.8
20191207144915 43 205 1.0 3.0 0.00 0.00 0.00 75 1017.5
20191207143415 44 217 1.0 5.0 0.00 0.00 0.00 73 1017.5
20191207141914 45 208 3.0 4.0 0.00 0.00 0.00 73 1017.2
20191207140414 46 196 1.0 4.0 0.00 0.00 0.00 71 1017.0
20191207134914 47 196 2.0 4.0 0.00 0.00 0.00 68 1017.0
20191207133414 47 201 2.0 5.0 0.00 0.00 0.00 67 1017.0
20191207131914 47 219 2.0 3.0 0.00 0.00 0.00 69 1017.1
20191207130414 47 208 3.0 4.0 0.00 0.00 0.00 68 1017.1
20191207124914 47 261 1.0 3.0 0.00 0.00 0.00 67 1017.1
20191207123414 47 211 2.0 4.0 0.00 0.00 0.00 68 1016.9
20191207121913 46 213 3.0 4.0 0.00 0.00 0.00 67 1016.9
20191207120414 46 227 0.0 3.0 0.00 0.00 0.00 68 1016.7
20191207114913 45 240 3.0 3.0 0.00 0.00 0.00 69 1016.9
20191207113413 44 270 3.0 4.0 0.00 0.00 0.00 69 1017.0
20191207111913 43 215 4.0 6.0 0.00 0.00 0.00 71 1017.1
20191207110413 42 208 3.0 6.0 0.00 0.00 0.00 72 1017.4
20191207104913 42 286 2.0 8.0 0.00 0.00 0.00 73 1017.3
20191207103413 41 237 3.0 8.0 0.00 0.00 0.00 75 1017.4
20191207101913 40 252 6.0 9.0 0.00 0.00 0.00 76 1017.4
20191207100413 40 247 5.0 10.0 0.00 0.00 0.00 77 1017.6
20191207094919 39 223 4.0 9.0 0.00 0.00 0.00 77 1017.8
20191207093417 40 287 5.0 8.0 0.00 0.00 0.00 75 1017.9
20191207091917 40 232 4.0 8.0 0.00 0.00 0.00 73 1017.8
20191207090417 40 272 3.0 6.0 0.00 0.00 0.00 75 1017.9
20191207084916 38 219 5.0 8.0 0.00 0.00 0.00 76 1018.0
20191207083417 37 215 6.0 11.0 0.00 0.00 0.00 79 1017.8
20191207081916 36 271 6.0 9.0 0.00 0.00 0.00 80 1017.6
20191207080417 36 229 7.0 9.0 0.00 0.00 0.00 81 1017.4
20191207074916 35 236 6.0 9.0 0.00 0.00 0.00 82 1017.5
20191207073416 35 234 6.0 8.0 0.00 0.00 0.00 82 1017.7
20191207071916 35 219 5.0 8.0 0.00 0.00 0.00 82 1017.5
20191207070416 35 250 5.0 8.0 0.00 0.00 0.00 83 1017.6
20191207064915 34 215 6.0 10.0 0.00 0.00 0.00 84 1017.3
20191207063415 35 211 4.0 7.0 0.00 0.00 0.00 83 1017.3
20191207061915 34 228 6.0 8.0 0.00 0.00 0.00 84 1017.1
20191207060415 35 232 8.0 10.0 0.00 0.00 0.00 81 1017.3
20191207054915 35 222 6.0 10.0 0.00 0.00 0.00 83 1017.0
20191207053415 35 248 7.0 9.0 0.00 0.00 0.00 83 1016.9
20191207051914 34 264 6.0 10.0 0.00 0.00 0.00 84 1017.0
20191207050415 35 266 3.0 7.0 0.00 0.00 0.00 83 1016.9
20191207044915 35 215 5.0 6.0 0.00 0.00 0.00 83 1016.9
20191207043414 35 213 4.0 6.0 0.00 0.00 0.00 83 1016.9
20191207041914 35 231 6.0 8.0 0.00 0.00 0.00 83 1016.9
20191207040414 35 221 4.0 8.0 0.00 0.00 0.00 83 1016.8
20191207034914 35 247 4.0 7.0 0.00 0.00 0.00 83 1017.0
20191207033413 35 221 4.0 7.0 0.00 0.00 0.00 83 1016.9
20191207031913 35 220 5.0 7.0 0.00 0.00 0.00 84 1017.0
20191207030413 35 252 3.0 7.0 0.00 0.00 0.00 83 1016.9
20191207024913 35 222 6.0 11.0 0.00 0.00 0.00 83 1017.1
20191207023413 36 223 4.0 8.0 0.00 0.00 0.00 82 1017.2
20191207021913 36 264 7.0 9.0 0.00 0.00 0.00 83 1017.2
20191207020413 36 227 5.0 7.0 0.00 0.00 0.00 84 1017.2
20191207014912 35 215 4.0 6.0 0.00 0.00 0.00 85 1017.3
20191207013412 35 209 3.0 5.0 0.00 0.00 0.00 85 1017.3
20191207011912 35 193 4.0 5.0 0.00 0.00 0.00 85 1017.3
20191207010412 35 211 2.0 5.0 0.00 0.00 0.00 85 1017.5